createdAt,value
2022-12-31T00:01:07.890Z,1.10
2022-12-31T00:03:34.666Z,4.00
2022-12-31T00:06:02.079Z,2.40
2022-12-31T00:08:28.560Z,1.40
2022-12-31T00:10:55.153Z,2.75
2022-12-31T00:13:21.709Z,2.25
2022-12-31T00:15:48.342Z,4.87
2022-12-31T00:18:14.832Z,3.17
2022-12-31T00:20:42.089Z,2.40
2022-12-31T00:23:10.025Z,3.53
2022-12-31T00:25:36.759Z,5.32
2022-12-31T00:28:04.695Z,4.43
2022-12-31T00:30:31.621Z,4.28
2022-12-31T00:32:58.132Z,2.20
2022-12-31T00:35:24.627Z,2.70
2022-12-31T00:37:53.232Z,2.67
2022-12-31T00:40:20.250Z,2.63
2022-12-31T00:42:46.711Z,3.55
2022-12-31T00:45:13.222Z,3.65
2022-12-31T00:47:39.676Z,1.90
2022-12-31T00:50:06.548Z,4.57
2022-12-31T00:52:33.074Z,1.63
2022-12-31T00:54:59.558Z,3.55
2022-12-31T00:57:26.019Z,2.05
2022-12-31T00:59:52.575Z,1.95
2022-12-31T01:02:19.176Z,2.67
2022-12-31T01:04:45.812Z,3.33
2022-12-31T01:07:12.268Z,3.45
2022-12-31T01:09:39.211Z,2.65
2022-12-31T01:12:06.872Z,2.70
2022-12-31T01:14:33.917Z,4.78
2022-12-31T01:17:00.369Z,1.63
2022-12-31T01:19:29.665Z,5.25
2022-12-31T01:21:56.488Z,7.15
2022-12-31T01:24:23.425Z,6.35
2022-12-31T01:26:51.349Z,1.48
2022-12-31T01:29:17.959Z,3.87
2022-12-31T01:31:44.568Z,7.65
2022-12-31T01:34:11.192Z,3.65
2022-12-31T01:36:38.683Z,5.20
2022-12-31T01:39:07.298Z,3.30
2022-12-31T01:41:39.939Z,4.17
2022-12-31T01:44:12.568Z,4.22
2022-12-31T01:46:46.537Z,7.97
2022-12-31T01:49:18.690Z,2.13
2022-12-31T01:51:51.685Z,4.40
2022-12-31T01:54:21.322Z,1.97
2022-12-31T01:56:50.426Z,2.08
2022-12-31T01:59:18.884Z,4.35
2022-12-31T02:01:48.259Z,3.30
2022-12-31T02:04:15.876Z,5.43
2022-12-31T02:07:05.534Z,2.17
2022-12-31T02:09:33.150Z,4.13
2022-12-31T02:11:59.793Z,4.82
2022-12-31T02:14:33.876Z,4.15
2022-12-31T02:17:06.055Z,4.63
2022-12-31T02:20:03.068Z,2.40
2022-12-31T02:22:35.525Z,8.50
2022-12-31T02:25:28.195Z,6.47
2022-12-31T02:28:06.682Z,2.30
2022-12-31T02:30:33.342Z,3.42
2022-12-31T02:33:42.622Z,3.03
2022-12-31T02:36:15.880Z,6.95
2022-12-31T02:38:46.695Z,2.42
2022-12-31T02:41:40.548Z,2.63
2022-12-31T02:44:25.187Z,2.10
2022-12-31T02:46:58.930Z,3.90
2022-12-31T02:49:37.587Z,1.38
2022-12-31T02:52:14.740Z,4.40
2022-12-31T02:54:57.005Z,5.32
2022-12-31T02:57:37.317Z,3.80
2022-12-31T03:00:29.604Z,3.53
2022-12-31T03:02:57.949Z,3.88
2022-12-31T03:05:27.996Z,4.18
2022-12-31T03:07:54.518Z,2.83
2022-12-31T03:10:21.740Z,3.05
2022-12-31T03:12:48.824Z,1.60
2022-12-31T03:15:21.678Z,2.83
2022-12-31T03:17:59.061Z,3.42
2022-12-31T03:21:04.585Z,3.83
2022-12-31T03:23:39.036Z,5.47
2022-12-31T03:26:14.295Z,8.20
2022-12-31T03:28:46.190Z,7.53
2022-12-31T03:31:13.465Z,5.40
2022-12-31T03:33:42.316Z,6.55
2022-12-31T03:36:17.293Z,4.25
2022-12-31T03:38:46.405Z,3.90
2022-12-31T03:41:16.423Z,3.92
2022-12-31T03:43:43.060Z,2.20
2022-12-31T03:46:24.389Z,2.55
2022-12-31T03:48:51.679Z,5.63
2022-12-31T03:51:18.106Z,4.13
2022-12-31T03:53:44.527Z,2.33
2022-12-31T03:56:10.991Z,2.80
2022-12-31T03:58:47.009Z,1.77
2022-12-31T04:01:13.532Z,2.97
2022-12-31T04:03:42.852Z,2.87
2022-12-31T04:06:09.291Z,2.55
2022-12-31T04:08:38.344Z,1.52
2022-12-31T04:11:04.743Z,3.30
2022-12-31T04:13:33.150Z,1.85
2022-12-31T04:15:59.614Z,2.60
2022-12-31T04:18:26.450Z,3.58
2022-12-31T04:20:55.834Z,3.00
2022-12-31T04:23:22.513Z,3.40
2022-12-31T04:25:48.966Z,1.85
2022-12-31T04:28:15.502Z,1.67
2022-12-31T04:30:41.960Z,3.40
2022-12-31T04:33:08.418Z,4.13
2022-12-31T04:35:35.145Z,3.42
2022-12-31T04:38:01.624Z,2.20
2022-12-31T04:40:28.656Z,0.77
2022-12-31T04:42:55.102Z,1.48
2022-12-31T04:45:21.619Z,3.10
2022-12-31T04:47:48.034Z,2.75
2022-12-31T04:50:14.585Z,2.30
2022-12-31T04:52:43.059Z,1.93
2022-12-31T04:55:10.607Z,4.85
2022-12-31T04:57:37.067Z,3.65
2022-12-31T05:00:03.916Z,3.05
2022-12-31T05:02:30.555Z,2.83
2022-12-31T05:04:57.211Z,3.97
2022-12-31T05:07:23.739Z,5.05
2022-12-31T05:09:50.215Z,3.22
2022-12-31T05:12:16.629Z,3.80
2022-12-31T05:14:43.109Z,2.72
2022-12-31T05:17:09.588Z,2.80
2022-12-31T05:19:36.029Z,2.72
2022-12-31T05:22:21.150Z,2.47
2022-12-31T05:24:47.672Z,4.47
2022-12-31T05:27:14.143Z,4.03
2022-12-31T05:29:40.583Z,2.47
2022-12-31T05:32:07.035Z,3.17
2022-12-31T05:34:33.456Z,1.50
2022-12-31T05:36:59.892Z,3.58
2022-12-31T05:39:26.325Z,3.08
2022-12-31T05:41:52.852Z,3.83
2022-12-31T05:44:19.337Z,3.08
2022-12-31T05:46:47.142Z,2.85
2022-12-31T05:49:13.582Z,1.75
2022-12-31T05:51:40.077Z,1.65
2022-12-31T05:54:06.537Z,2.63
2022-12-31T05:56:33.505Z,4.60
2022-12-31T05:58:59.936Z,2.15
2022-12-31T06:01:26.431Z,1.30
2022-12-31T06:03:53.029Z,1.58
2022-12-31T06:06:19.464Z,1.40
2022-12-31T06:08:52.479Z,1.65
2022-12-31T06:11:18.894Z,2.47
2022-12-31T06:13:45.454Z,0.80
2022-12-31T06:16:12.095Z,2.17
2022-12-31T06:18:38.563Z,0.80
2022-12-31T06:21:05.407Z,1.30
2022-12-31T06:23:32.305Z,1.70
2022-12-31T06:26:05.136Z,0.88
2022-12-31T06:28:31.823Z,1.00
2022-12-31T06:31:03.393Z,1.23
2022-12-31T06:33:30.025Z,2.22
2022-12-31T06:36:01.935Z,2.40
2022-12-31T06:38:30.746Z,1.88
2022-12-31T06:40:58.376Z,2.95
2022-12-31T06:43:25.242Z,3.67
2022-12-31T06:45:51.732Z,2.92
2022-12-31T06:48:18.737Z,4.45
2022-12-31T06:50:45.185Z,2.83
2022-12-31T06:53:11.773Z,3.03
2022-12-31T06:55:38.517Z,3.30
2022-12-31T06:58:05.479Z,5.25
2022-12-31T07:00:32.216Z,3.70
2022-12-31T07:03:15.895Z,2.78
2022-12-31T07:05:50.866Z,5.40
2022-12-31T07:08:49.548Z,3.10
2022-12-31T07:11:23.609Z,2.10
2022-12-31T07:14:27.779Z,2.67
2022-12-31T07:17:02.011Z,4.35
2022-12-31T07:19:45.741Z,2.33
2022-12-31T07:22:15.792Z,1.77
2022-12-31T07:24:51.605Z,1.83
2022-12-31T07:27:46.860Z,1.83
2022-12-31T07:30:21.066Z,1.05
2022-12-31T07:33:19.657Z,2.15
2022-12-31T07:36:16.857Z,0.80
2022-12-31T07:39:14.822Z,0.90
2022-12-31T07:42:05.283Z,0.93
2022-12-31T07:44:56.549Z,1.55
2022-12-31T07:47:28.148Z,0.22
2022-12-31T07:49:56.294Z,0.20
2022-12-31T07:52:23.733Z,1.63
2022-12-31T07:54:50.258Z,1.27
2022-12-31T07:57:19.069Z,1.08
2022-12-31T08:00:04.217Z,0.60
2022-12-31T08:03:08.596Z,1.93
2022-12-31T08:06:11.719Z,0.40
2022-12-31T08:08:53.603Z,0.55
2022-12-31T08:11:36.714Z,1.30
2022-12-31T08:14:03.828Z,0.70
2022-12-31T08:16:30.662Z,1.13
2022-12-31T08:18:57.505Z,1.98
2022-12-31T08:21:43.513Z,2.63
2022-12-31T08:24:17.546Z,5.45
2022-12-31T08:27:05.198Z,2.95
2022-12-31T08:29:44.909Z,1.80
2022-12-31T08:32:37.700Z,3.08
2022-12-31T08:41:07.417Z,2.70
2022-12-31T08:43:50.092Z,0.53
2022-12-31T08:46:46.094Z,3.03
2022-12-31T08:49:14.750Z,1.85
2022-12-31T08:51:41.689Z,1.42
2022-12-31T08:54:11.177Z,4.43
2022-12-31T08:57:09.267Z,3.70
2022-12-31T08:59:38.564Z,1.45
2022-12-31T09:02:07.802Z,1.20
2022-12-31T09:05:12.041Z,1.05
2022-12-31T09:07:44.861Z,1.27
2022-12-31T09:10:22.904Z,3.07
2022-12-31T09:13:05.391Z,1.63
2022-12-31T09:15:48.041Z,2.38
2022-12-31T09:18:14.954Z,1.42
2022-12-31T09:20:43.397Z,5.32
2022-12-31T09:23:12.713Z,2.80
2022-12-31T09:25:46.950Z,4.43
2022-12-31T09:28:47.095Z,3.70
2022-12-31T09:31:17.753Z,2.85
2022-12-31T09:33:52.318Z,1.73
2022-12-31T09:36:34.871Z,2.97
2022-12-31T09:39:16.045Z,1.90
2022-12-31T09:42:13.967Z,3.20
2022-12-31T09:45:22.070Z,2.88
2022-12-31T09:48:17.901Z,3.05
2022-12-31T09:50:56.908Z,2.67
2022-12-31T09:53:39.448Z,1.45
2022-12-31T09:56:42.481Z,3.75
2022-12-31T09:59:27.198Z,1.95
2022-12-31T10:01:59.466Z,2.92
2022-12-31T10:04:45.338Z,2.23
2022-12-31T10:07:39.869Z,3.13
2022-12-31T10:10:22.616Z,3.00
2022-12-31T10:13:21.693Z,4.18
2022-12-31T10:16:09.913Z,3.05
2022-12-31T10:18:53.706Z,6.33
2022-12-31T10:21:32.247Z,2.20
2022-12-31T10:24:18.114Z,2.00
2022-12-31T10:27:03.147Z,3.35
2022-12-31T10:29:56.775Z,1.17
2022-12-31T10:32:32.324Z,2.53
2022-12-31T10:35:14.697Z,1.40
2022-12-31T10:38:23.697Z,1.58
2022-12-31T10:41:36.844Z,4.63
2022-12-31T10:44:12.684Z,4.22
2022-12-31T10:47:00.928Z,3.27
2022-12-31T10:49:58.416Z,2.83
2022-12-31T10:52:39.755Z,2.15
2022-12-31T10:55:33.213Z,2.17
2022-12-31T10:58:32.208Z,2.15
2022-12-31T11:00:58.695Z,2.67
2022-12-31T11:03:37.584Z,3.90
2022-12-31T11:06:10.732Z,3.15
2022-12-31T11:09:08.334Z,2.85
2022-12-31T11:11:49.499Z,6.20
2022-12-31T11:14:43.146Z,1.53
2022-12-31T11:17:20.861Z,4.38
2022-12-31T11:20:15.018Z,3.20
2022-12-31T11:23:06.150Z,2.22
2022-12-31T11:25:51.220Z,2.97
2022-12-31T11:28:30.569Z,4.50
2022-12-31T11:31:32.878Z,2.58
2022-12-31T11:34:29.836Z,3.15
2022-12-31T11:37:53.564Z,2.83
2022-12-31T11:40:33.849Z,3.10
2022-12-31T11:43:36.187Z,2.80
2022-12-31T11:46:34.281Z,5.65
2022-12-31T11:49:11.980Z,7.22
2022-12-31T11:52:21.576Z,5.78
2022-12-31T11:55:09.243Z,2.38
2022-12-31T11:57:38.170Z,2.17
2022-12-31T12:00:13.268Z,4.53
2022-12-31T12:02:45.688Z,8.85
2022-12-31T12:05:16.786Z,6.43
2022-12-31T12:07:43.529Z,3.63
2022-12-31T12:10:27.914Z,2.57
2022-12-31T12:13:00.285Z,2.30
2022-12-31T12:15:29.874Z,3.65
2022-12-31T12:17:59.293Z,2.78
2022-12-31T12:20:33.492Z,2.55
2022-12-31T12:23:12.628Z,3.33
2022-12-31T12:25:42.552Z,2.67
2022-12-31T12:28:30.924Z,3.20
2022-12-31T12:33:48.329Z,3.42
2022-12-31T12:36:17.973Z,3.07
2022-12-31T12:38:44.598Z,7.22
2022-12-31T12:41:32.414Z,2.97
2022-12-31T12:44:16.836Z,2.85
2022-12-31T12:46:51.826Z,5.22
2022-12-31T12:49:36.421Z,3.03
2022-12-31T12:52:40.323Z,3.17
2022-12-31T12:55:36.897Z,2.50
2022-12-31T12:58:19.699Z,5.95
2022-12-31T13:01:19.415Z,4.35
2022-12-31T13:07:36.799Z,3.72
2022-12-31T13:10:22.198Z,3.85
2022-12-31T13:13:25.046Z,4.32
2022-12-31T13:16:29.880Z,4.10
2022-12-31T13:19:02.110Z,4.53
2022-12-31T13:21:32.471Z,2.53
2022-12-31T13:24:06.447Z,2.90
2022-12-31T13:26:45.699Z,4.40
2022-12-31T13:29:20.937Z,2.25
2022-12-31T13:31:51.113Z,3.13
2022-12-31T13:34:25.900Z,3.15
2022-12-31T13:36:57.200Z,3.05
2022-12-31T13:39:31.954Z,3.50
2022-12-31T13:42:26.449Z,4.63
2022-12-31T13:45:02.397Z,3.20
2022-12-31T13:48:26.676Z,5.90
2022-12-31T13:54:46.815Z,4.07
2022-12-31T13:58:06.097Z,4.60
2022-12-31T14:00:39.971Z,4.20
2022-12-31T14:03:36.541Z,4.55
2022-12-31T14:06:15.211Z,4.93
2022-12-31T14:08:41.734Z,4.38
2022-12-31T14:11:18.586Z,5.57
2022-12-31T14:13:59.756Z,4.03
2022-12-31T14:16:39.130Z,4.20
2022-12-31T14:19:30.684Z,5.65
2022-12-31T14:22:18.316Z,3.50
2022-12-31T14:24:51.203Z,4.97
2022-12-31T14:27:38.621Z,4.67
2022-12-31T14:30:15.598Z,2.42
2022-12-31T14:33:06.129Z,4.45
2022-12-31T14:35:38.928Z,5.03
2022-12-31T14:38:28.353Z,4.40
2022-12-31T14:41:27.330Z,2.53
2022-12-31T14:44:27.512Z,3.50
2022-12-31T14:47:11.951Z,10.20
2022-12-31T14:49:41.349Z,6.80
2022-12-31T14:52:25.641Z,4.75
2022-12-31T14:55:12.560Z,5.57
2022-12-31T14:58:25.434Z,6.15
2022-12-31T15:00:30.726Z,7.57
2022-12-31T15:03:24.933Z,4.80
2022-12-31T15:05:51.318Z,4.28
2022-12-31T15:08:31.534Z,4.77
2022-12-31T15:11:30.322Z,4.68
2022-12-31T15:14:23.454Z,7.18
2022-12-31T15:17:06.885Z,4.68
2022-12-31T15:20:16.877Z,5.57
2022-12-31T15:22:50.903Z,10.50
2022-12-31T15:25:41.393Z,8.93
2022-12-31T15:28:33.304Z,8.80
2022-12-31T15:31:19.359Z,8.85
2022-12-31T15:34:35.159Z,9.60
2022-12-31T15:37:27.857Z,10.57
2022-12-31T15:40:07.364Z,7.20
2022-12-31T15:42:50.223Z,8.38
2022-12-31T15:45:24.517Z,7.05
2022-12-31T15:47:57.408Z,6.32
2022-12-31T15:50:25.031Z,6.87
2022-12-31T15:52:55.156Z,9.25
2022-12-31T15:55:46.038Z,7.80
2022-12-31T15:58:18.689Z,6.03
2022-12-31T16:01:16.792Z,10.15
2022-12-31T16:03:56.447Z,8.80
2022-12-31T16:06:25.476Z,10.60
2022-12-31T16:08:52.023Z,6.63
2022-12-31T16:11:19.132Z,7.32
2022-12-31T16:13:49.157Z,9.90
2022-12-31T16:16:23.164Z,4.37
2022-12-31T16:18:56.161Z,8.18
2022-12-31T16:21:39.038Z,9.95
2022-12-31T16:24:23.497Z,6.43
2022-12-31T16:26:53.116Z,7.45
2022-12-31T16:29:22.224Z,5.87
2022-12-31T16:31:50.190Z,13.43
2022-12-31T16:34:19.172Z,10.88
2022-12-31T16:36:59.428Z,8.27
2022-12-31T16:39:30.407Z,7.97
2022-12-31T16:42:17.635Z,10.37
2022-12-31T16:44:44.782Z,9.45
2022-12-31T16:47:19.305Z,9.43
2022-12-31T16:49:50.255Z,10.75
2022-12-31T16:52:31.747Z,6.10
2022-12-31T16:55:00.140Z,5.17
2022-12-31T16:57:32.384Z,8.07
2022-12-31T17:00:04.108Z,9.00
2022-12-31T17:02:54.930Z,6.30
2022-12-31T17:05:26.543Z,9.80
2022-12-31T17:07:53.134Z,8.70
2022-12-31T17:10:35.019Z,6.32
2022-12-31T17:13:29.377Z,5.38
2022-12-31T17:15:57.729Z,9.63
2022-12-31T17:18:27.095Z,8.82
2022-12-31T17:20:55.149Z,8.37
2022-12-31T17:23:34.228Z,11.82
2022-12-31T17:26:07.621Z,9.45
2022-12-31T17:28:45.630Z,9.52
2022-12-31T17:31:40.273Z,8.90
2022-12-31T17:34:19.241Z,9.30
2022-12-31T17:36:59.116Z,9.55
2022-12-31T17:39:27.625Z,9.23
2022-12-31T17:41:57.165Z,9.02
2022-12-31T17:44:35.182Z,9.05
2022-12-31T17:47:02.655Z,10.70
2022-12-31T17:49:31.818Z,5.70
2022-12-31T17:51:58.554Z,7.07
2022-12-31T17:54:26.570Z,9.13
2022-12-31T17:56:53.844Z,4.75
2022-12-31T17:59:37.071Z,5.70
2022-12-31T18:02:05.291Z,5.05
2022-12-31T18:04:31.858Z,9.77
2022-12-31T18:06:58.347Z,6.18
2022-12-31T18:09:25.018Z,9.88
2022-12-31T18:11:54.348Z,8.70
2022-12-31T18:14:23.390Z,9.85
2022-12-31T18:16:50.099Z,6.68
2022-12-31T18:19:45.850Z,10.10
2022-12-31T18:22:03.251Z,9.63
2022-12-31T18:24:29.835Z,7.00
2022-12-31T18:26:56.333Z,9.00
2022-12-31T18:29:23.032Z,8.57
2022-12-31T18:31:50.748Z,6.13
2022-12-31T18:34:18.609Z,6.88
2022-12-31T18:36:45.377Z,9.20
2022-12-31T18:39:11.927Z,4.28
2022-12-31T18:41:42.292Z,5.53
2022-12-31T18:44:11.452Z,5.53
2022-12-31T18:46:37.891Z,6.30
2022-12-31T18:49:04.585Z,5.20
2022-12-31T18:51:32.313Z,7.70
2022-12-31T18:54:00.643Z,6.70
2022-12-31T18:56:27.668Z,5.85
2022-12-31T18:58:54.225Z,4.95
2022-12-31T19:01:37.834Z,8.50
2022-12-31T19:04:18.696Z,5.38
2022-12-31T19:06:49.895Z,8.75
2022-12-31T19:09:43.375Z,9.20
2022-12-31T19:12:07.488Z,5.60
2022-12-31T19:14:35.603Z,5.93
2022-12-31T19:19:27.721Z,9.40
2022-12-31T19:21:54.174Z,6.22
2022-12-31T19:24:23.111Z,10.18
2022-12-31T19:26:50.034Z,7.18
2022-12-31T19:29:21.374Z,4.93
2022-12-31T19:31:51.710Z,5.20
2022-12-31T19:34:18.327Z,7.95
2022-12-31T19:36:45.301Z,6.05
2022-12-31T19:39:32.754Z,9.13
2022-12-31T19:41:59.886Z,6.20
2022-12-31T19:44:26.757Z,6.57
2022-12-31T19:46:56.004Z,6.13
2022-12-31T19:49:22.479Z,6.43
2022-12-31T19:51:48.993Z,10.98
2022-12-31T19:54:15.696Z,11.27
2022-12-31T19:56:42.717Z,11.40
2022-12-31T19:59:10.683Z,7.78
2022-12-31T20:01:39.708Z,8.48
2022-12-31T20:04:06.624Z,13.32
2022-12-31T20:06:33.412Z,8.32
2022-12-31T20:08:59.893Z,6.30
2022-12-31T20:11:26.463Z,10.25
2022-12-31T20:13:54.008Z,7.10
2022-12-31T20:16:23.573Z,6.95
2022-12-31T20:18:50.613Z,6.65
2022-12-31T20:21:21.825Z,9.03
2022-12-31T20:23:49.947Z,6.25
2022-12-31T20:26:18.012Z,6.78
2022-12-31T20:28:44.568Z,7.05
2022-12-31T20:31:14.899Z,5.13
2022-12-31T20:33:42.095Z,11.13
2022-12-31T20:36:11.473Z,9.95
2022-12-31T20:38:38.116Z,7.30
2022-12-31T20:41:08.771Z,9.07
2022-12-31T20:43:36.113Z,7.93
2022-12-31T20:46:16.150Z,10.27
2022-12-31T20:48:44.404Z,8.82
2022-12-31T20:51:11.597Z,10.93
2022-12-31T20:53:38.273Z,9.00
2022-12-31T20:56:09.474Z,11.98
2022-12-31T20:58:36.247Z,9.70
2022-12-31T21:01:06.614Z,7.47
2022-12-31T21:06:26.599Z,9.52
2022-12-31T21:08:54.791Z,8.32
2022-12-31T21:11:39.744Z,8.70
2022-12-31T21:14:09.176Z,6.70
2022-12-31T21:16:36.964Z,7.05
2022-12-31T21:19:03.839Z,10.10
2022-12-31T21:21:30.262Z,12.07
2022-12-31T21:23:56.813Z,14.67
2022-12-31T21:26:23.341Z,7.50
2022-12-31T21:28:49.814Z,9.50
2022-12-31T21:31:16.486Z,10.98
2022-12-31T21:33:49.391Z,7.35
2022-12-31T21:36:16.230Z,8.33
2022-12-31T21:38:43.782Z,8.50
2022-12-31T21:41:33.503Z,6.15
2022-12-31T21:44:01.479Z,12.50
2022-12-31T21:46:28.313Z,7.93
2022-12-31T21:48:57.956Z,7.33
2022-12-31T21:51:24.635Z,11.77
2022-12-31T21:53:51.662Z,12.88
2022-12-31T21:56:22.883Z,6.47
2022-12-31T21:59:31.307Z,8.13
2022-12-31T22:02:16.227Z,10.53
2022-12-31T22:05:01.859Z,11.57
2022-12-31T22:07:36.131Z,4.20
2022-12-31T22:10:03.348Z,9.90
2022-12-31T22:12:29.864Z,9.07
2022-12-31T22:15:14.565Z,9.73
2022-12-31T22:20:29.832Z,6.45
2022-12-31T22:22:56.544Z,11.70
2022-12-31T22:25:22.969Z,10.52
2022-12-31T22:28:37.022Z,12.80
2022-12-31T22:30:35.933Z,5.95
2022-12-31T22:33:03.803Z,7.07
2022-12-31T22:35:30.503Z,6.60
2022-12-31T22:38:00.887Z,7.32
2022-12-31T22:40:31.773Z,10.20
2022-12-31T22:42:58.293Z,9.38
2022-12-31T22:45:24.838Z,8.18
2022-12-31T22:47:51.355Z,7.63
2022-12-31T22:50:17.979Z,9.60
2022-12-31T22:52:44.487Z,10.97
2022-12-31T22:55:11.677Z,7.50
2022-12-31T22:57:38.129Z,10.48
2022-12-31T23:00:10.011Z,6.43
2022-12-31T23:02:41.509Z,8.38
2022-12-31T23:05:15.118Z,10.60
2022-12-31T23:07:42.730Z,10.85
2022-12-31T23:10:29.158Z,9.30
2022-12-31T23:12:55.572Z,9.48
2022-12-31T23:15:40.579Z,6.60
2022-12-31T23:18:25.376Z,12.03
2022-12-31T23:21:10.245Z,12.05
2022-12-31T23:23:38.558Z,14.70
2022-12-31T23:26:10.504Z,13.90
2022-12-31T23:28:36.934Z,12.82
2022-12-31T23:31:06.618Z,15.07
2022-12-31T23:33:33.094Z,14.88
2022-12-31T23:36:05.603Z,17.33
2022-12-31T23:38:32.056Z,14.05
2022-12-31T23:40:58.604Z,17.05
2022-12-31T23:43:25.131Z,15.33
2022-12-31T23:45:52.543Z,14.63
2022-12-31T23:48:19.364Z,12.45
2022-12-31T23:50:53.018Z,14.77
2022-12-31T23:53:20.985Z,13.20
2022-12-31T23:55:47.458Z,14.97
2022-12-31T23:58:13.890Z,19.70
